CheckWX is a tool to help pilots better visualize weather data.  It is not intended as a substitute for an official pre-flight weather briefing.

02:12:06 UTC

LEGE TAF
Girona Airport
Girona, Spain
TAF LEGE 182300Z 1900/1924 VRB03KT 9999 FEW030 TX17/1913Z TN05/1906Z PROB30 TEMPO 1900/1907 4000 BR BECMG 1908/1910 02018G28KT BECMG 1917/1919 36006KT

Mar-19@
00:00 UTC

Mar-19 @ 00:00 UTC

Mar-19@
08:00 UTC

Mar-19 @ 08:00 UTC

TAF LEGE 182300Z 1900/1924 VRB03KT 9999 FEW030 TX17/1913Z TN05/1906Z
Wind
  • Variable at 3 KTS
Cloud Levels
  • Few at 3,000' AGL

Mar-19@
00:00 UTC

Mar-19 @ 00:00 UTC

Mar-19@
07:00 UTC

Mar-19 @ 07:00 UTC

PROB30 TEMPO 1900/1907 4000 BR

Temporary - 30% Likelihood

Temporary - 30% Likelihood during this time.

Conditions
Mist

Mar-19@
08:00 UTC

Mar-19 @ 08:00 UTC

Mar-19@
17:00 UTC

Mar-19 @ 17:00 UTC

BECMG 1908/1910 02018G28KT

Becoming

Becoming Conditions expected by Tue, Mar 19, 2019 @ 10:00 UTC

Wind
  • 020° at 18 KTS
  • {Gusting to 28 KTS
Cloud Levels
  • Few at 3,000' AGL

Mar-19@
17:00 UTC

Mar-19 @ 17:00 UTC

Mar-20@
00:00 UTC

Mar-20 @ 00:00 UTC

BECMG 1917/1919 36006KT

Becoming

Becoming Conditions expected by Tue, Mar 19, 2019 @ 19:00 UTC

Wind
  • 360° at 6 KTS
Cloud Levels
  • Few at 3,000' AGL